sensor_id;sensor_type;location;lat;lon;timestamp;P1;durP1;ratioP1;P2;durP2;ratioP2
18651;SDS011;9455;54.302;10.124;2022-09-09T00:00:24;31.43;;;14.77;;
18651;SDS011;9455;54.302;10.124;2022-09-09T00:02:54;29.97;;;14.43;;
18651;SDS011;9455;54.302;10.124;2022-09-09T00:05:29;32.73;;;15.10;;
18651;SDS011;9455;54.302;10.124;2022-09-09T00:08:03;35.23;;;17.77;;
18651;SDS011;9455;54.302;10.124;2022-09-09T00:10:32;29.20;;;14.70;;
18651;SDS011;9455;54.302;10.124;2022-09-09T00:13:06;31.77;;;16.30;;
18651;SDS011;9455;54.302;10.124;2022-09-09T00:15:44;46.27;;;16.43;;
18651;SDS011;9455;54.302;10.124;2022-09-09T00:18:21;36.30;;;15.30;;
18651;SDS011;9455;54.302;10.124;2022-09-09T00:20:52;34.80;;;15.90;;
18651;SDS011;9455;54.302;10.124;2022-09-09T00:23:24;32.83;;;15.67;;
18651;SDS011;9455;54.302;10.124;2022-09-09T00:25:57;36.90;;;16.03;;
18651;SDS011;9455;54.302;10.124;2022-09-09T00:28:30;31.63;;;15.00;;
18651;SDS011;9455;54.302;10.124;2022-09-09T00:30:59;33.77;;;15.80;;
18651;SDS011;9455;54.302;10.124;2022-09-09T00:33:36;39.57;;;17.17;;
18651;SDS011;9455;54.302;10.124;2022-09-09T00:36:07;31.20;;;14.77;;
18651;SDS011;9455;54.302;10.124;2022-09-09T00:38:41;33.17;;;15.83;;
18651;SDS011;9455;54.302;10.124;2022-09-09T00:41:13;33.37;;;16.00;;
18651;SDS011;9455;54.302;10.124;2022-09-09T00:43:46;34.20;;;16.20;;
18651;SDS011;9455;54.302;10.124;2022-09-09T00:49:24;33.03;;;15.63;;
18651;SDS011;9455;54.302;10.124;2022-09-09T00:52:04;27.93;;;14.30;;
18651;SDS011;9455;54.302;10.124;2022-09-09T00:54:44;33.83;;;15.27;;
18651;SDS011;9455;54.302;10.124;2022-09-09T00:57:22;30.77;;;15.00;;
18651;SDS011;9455;54.302;10.124;2022-09-09T00:59:55;93.07;;;36.10;;
18651;SDS011;9455;54.302;10.124;2022-09-09T01:02:28;37.57;;;17.33;;
18651;SDS011;9455;54.302;10.124;2022-09-09T01:04:59;32.33;;;15.20;;
18651;SDS011;9455;54.302;10.124;2022-09-09T01:07:31;35.27;;;16.43;;
18651;SDS011;9455;54.302;10.124;2022-09-09T01:09:57;29.63;;;14.53;;
18651;SDS011;9455;54.302;10.124;2022-09-09T01:12:29;28.97;;;13.60;;
18651;SDS011;9455;54.302;10.124;2022-09-09T01:15:08;28.53;;;14.03;;
18651;SDS011;9455;54.302;10.124;2022-09-09T01:17:40;30.93;;;13.80;;
18651;SDS011;9455;54.302;10.124;2022-09-09T01:20:17;32.30;;;14.00;;
18651;SDS011;9455;54.302;10.124;2022-09-09T01:22:49;28.50;;;13.70;;
18651;SDS011;9455;54.302;10.124;2022-09-09T01:25:29;25.90;;;13.63;;
18651;SDS011;9455;54.302;10.124;2022-09-09T01:28:28;27.00;;;14.07;;
18651;SDS011;9455;54.302;10.124;2022-09-09T01:30:56;27.00;;;13.47;;
18651;SDS011;9455;54.302;10.124;2022-09-09T01:33:23;29.93;;;14.70;;
18651;SDS011;9455;54.302;10.124;2022-09-09T01:35:51;28.97;;;13.33;;
18651;SDS011;9455;54.302;10.124;2022-09-09T01:38:21;24.03;;;13.57;;
18651;SDS011;9455;54.302;10.124;2022-09-09T01:40:51;26.77;;;14.43;;
18651;SDS011;9455;54.302;10.124;2022-09-09T01:43:19;29.23;;;14.53;;
18651;SDS011;9455;54.302;10.124;2022-09-09T01:45:46;24.80;;;13.73;;
18651;SDS011;9455;54.302;10.124;2022-09-09T01:48:17;25.30;;;12.93;;
18651;SDS011;9455;54.302;10.124;2022-09-09T01:50:45;30.73;;;13.00;;
18651;SDS011;9455;54.302;10.124;2022-09-09T01:53:11;26.13;;;12.27;;
18651;SDS011;9455;54.302;10.124;2022-09-09T01:55:42;29.60;;;13.10;;
18651;SDS011;9455;54.302;10.124;2022-09-09T01:58:20;27.43;;;12.77;;
18651;SDS011;9455;54.302;10.124;2022-09-09T02:00:56;29.40;;;14.10;;
18651;SDS011;9455;54.302;10.124;2022-09-09T02:03:31;27.07;;;13.47;;
18651;SDS011;9455;54.302;10.124;2022-09-09T02:06:00;28.07;;;13.47;;
18651;SDS011;9455;54.302;10.124;2022-09-09T02:08:39;34.37;;;13.30;;
18651;SDS011;9455;54.302;10.124;2022-09-09T02:11:09;31.17;;;13.80;;
18651;SDS011;9455;54.302;10.124;2022-09-09T02:13:40;27.37;;;13.43;;
18651;SDS011;9455;54.302;10.124;2022-09-09T02:16:11;28.77;;;12.33;;
18651;SDS011;9455;54.302;10.124;2022-09-09T02:18:42;25.77;;;12.40;;
18651;SDS011;9455;54.302;10.124;2022-09-09T02:21:13;22.30;;;11.40;;
18651;SDS011;9455;54.302;10.124;2022-09-09T02:23:41;21.17;;;11.13;;
18651;SDS011;9455;54.302;10.124;2022-09-09T02:26:10;25.63;;;13.03;;
18651;SDS011;9455;54.302;10.124;2022-09-09T02:28:45;22.23;;;11.20;;
18651;SDS011;9455;54.302;10.124;2022-09-09T02:31:13;21.40;;;12.40;;
18651;SDS011;9455;54.302;10.124;2022-09-09T02:33:44;32.03;;;14.53;;
18651;SDS011;9455;54.302;10.124;2022-09-09T02:36:14;33.77;;;13.80;;
18651;SDS011;9455;54.302;10.124;2022-09-09T02:38:42;32.70;;;15.33;;
18651;SDS011;9455;54.302;10.124;2022-09-09T02:41:15;29.63;;;13.53;;
18651;SDS011;9455;54.302;10.124;2022-09-09T02:43:42;32.77;;;14.30;;
18651;SDS011;9455;54.302;10.124;2022-09-09T02:46:12;30.50;;;14.07;;
18651;SDS011;9455;54.302;10.124;2022-09-09T02:48:52;35.83;;;14.73;;
18651;SDS011;9455;54.302;10.124;2022-09-09T02:51:27;38.27;;;14.57;;
18651;SDS011;9455;54.302;10.124;2022-09-09T02:54:04;36.77;;;15.87;;
18651;SDS011;9455;54.302;10.124;2022-09-09T02:56:43;38.40;;;15.90;;
18651;SDS011;9455;54.302;10.124;2022-09-09T02:59:16;32.07;;;13.90;;
18651;SDS011;9455;54.302;10.124;2022-09-09T03:01:44;38.57;;;15.67;;
18651;SDS011;9455;54.302;10.124;2022-09-09T03:04:10;38.77;;;16.37;;
18651;SDS011;9455;54.302;10.124;2022-09-09T03:06:37;32.80;;;15.20;;
18651;SDS011;9455;54.302;10.124;2022-09-09T03:09:03;45.13;;;16.90;;
18651;SDS011;9455;54.302;10.124;2022-09-09T03:11:30;47.87;;;17.10;;
18651;SDS011;9455;54.302;10.124;2022-09-09T03:13:57;41.63;;;17.10;;
18651;SDS011;9455;54.302;10.124;2022-09-09T03:16:23;47.90;;;18.30;;
18651;SDS011;9455;54.302;10.124;2022-09-09T03:18:51;52.50;;;18.93;;
18651;SDS011;9455;54.302;10.124;2022-09-09T03:21:18;51.57;;;18.97;;
18651;SDS011;9455;54.302;10.124;2022-09-09T03:23:44;45.27;;;17.73;;
18651;SDS011;9455;54.302;10.124;2022-09-09T03:26:11;63.43;;;21.67;;
18651;SDS011;9455;54.302;10.124;2022-09-09T03:28:40;53.80;;;19.60;;
18651;SDS011;9455;54.302;10.124;2022-09-09T03:31:06;58.37;;;20.83;;
18651;SDS011;9455;54.302;10.124;2022-09-09T03:33:35;54.50;;;20.53;;
18651;SDS011;9455;54.302;10.124;2022-09-09T03:36:03;56.73;;;20.20;;
18651;SDS011;9455;54.302;10.124;2022-09-09T03:38:30;71.53;;;21.63;;
18651;SDS011;9455;54.302;10.124;2022-09-09T03:40:57;61.47;;;20.27;;
18651;SDS011;9455;54.302;10.124;2022-09-09T03:43:24;61.87;;;21.57;;
18651;SDS011;9455;54.302;10.124;2022-09-09T03:45:52;58.33;;;19.77;;
18651;SDS011;9455;54.302;10.124;2022-09-09T03:48:21;62.90;;;20.83;;
18651;SDS011;9455;54.302;10.124;2022-09-09T03:50:50;59.80;;;19.50;;
18651;SDS011;9455;54.302;10.124;2022-09-09T03:53:19;66.37;;;20.30;;
18651;SDS011;9455;54.302;10.124;2022-09-09T03:55:48;56.13;;;20.30;;
18651;SDS011;9455;54.302;10.124;2022-09-09T03:58:19;50.10;;;19.00;;
18651;SDS011;9455;54.302;10.124;2022-09-09T04:00:52;61.03;;;19.27;;
18651;SDS011;9455;54.302;10.124;2022-09-09T04:03:20;56.90;;;18.57;;
18651;SDS011;9455;54.302;10.124;2022-09-09T04:05:48;56.77;;;18.60;;
18651;SDS011;9455;54.302;10.124;2022-09-09T04:08:14;57.63;;;18.30;;
18651;SDS011;9455;54.302;10.124;2022-09-09T04:10:42;51.63;;;18.20;;
18651;SDS011;9455;54.302;10.124;2022-09-09T04:13:11;53.30;;;17.70;;
18651;SDS011;9455;54.302;10.124;2022-09-09T04:15:41;51.43;;;18.53;;
18651;SDS011;9455;54.302;10.124;2022-09-09T04:18:08;51.40;;;16.90;;
18651;SDS011;9455;54.302;10.124;2022-09-09T04:20:35;43.03;;;14.73;;
18651;SDS011;9455;54.302;10.124;2022-09-09T04:23:01;56.27;;;17.00;;
18651;SDS011;9455;54.302;10.124;2022-09-09T04:25:28;42.67;;;15.83;;
18651;SDS011;9455;54.302;10.124;2022-09-09T04:27:56;56.73;;;17.13;;
18651;SDS011;9455;54.302;10.124;2022-09-09T04:30:23;45.90;;;15.97;;
18651;SDS011;9455;54.302;10.124;2022-09-09T04:32:52;52.03;;;17.23;;
18651;SDS011;9455;54.302;10.124;2022-09-09T04:35:18;49.37;;;16.67;;
18651;SDS011;9455;54.302;10.124;2022-09-09T04:37:45;44.00;;;17.27;;
18651;SDS011;9455;54.302;10.124;2022-09-09T04:40:13;51.17;;;18.27;;
18651;SDS011;9455;54.302;10.124;2022-09-09T04:42:40;48.43;;;17.13;;
18651;SDS011;9455;54.302;10.124;2022-09-09T04:45:10;45.93;;;16.57;;
18651;SDS011;9455;54.302;10.124;2022-09-09T04:47:38;42.53;;;17.90;;
18651;SDS011;9455;54.302;10.124;2022-09-09T04:50:05;47.23;;;18.43;;
18651;SDS011;9455;54.302;10.124;2022-09-09T04:52:33;53.00;;;18.83;;
18651;SDS011;9455;54.302;10.124;2022-09-09T04:55:00;54.30;;;19.70;;
18651;SDS011;9455;54.302;10.124;2022-09-09T04:57:26;45.67;;;17.57;;
18651;SDS011;9455;54.302;10.124;2022-09-09T04:59:53;49.53;;;17.60;;
18651;SDS011;9455;54.302;10.124;2022-09-09T05:02:21;51.43;;;18.40;;
18651;SDS011;9455;54.302;10.124;2022-09-09T05:04:48;52.53;;;18.43;;
18651;SDS011;9455;54.302;10.124;2022-09-09T05:07:14;54.43;;;17.67;;
18651;SDS011;9455;54.302;10.124;2022-09-09T05:09:41;50.13;;;17.93;;
18651;SDS011;9455;54.302;10.124;2022-09-09T05:12:08;53.43;;;18.50;;
18651;SDS011;9455;54.302;10.124;2022-09-09T05:14:34;44.63;;;17.67;;
18651;SDS011;9455;54.302;10.124;2022-09-09T05:17:02;51.20;;;18.73;;
18651;SDS011;9455;54.302;10.124;2022-09-09T05:19:30;63.60;;;20.50;;
18651;SDS011;9455;54.302;10.124;2022-09-09T05:21:57;52.77;;;18.53;;
18651;SDS011;9455;54.302;10.124;2022-09-09T05:24:23;53.43;;;19.50;;
18651;SDS011;9455;54.302;10.124;2022-09-09T05:26:50;53.93;;;20.13;;
18651;SDS011;9455;54.302;10.124;2022-09-09T05:29:17;51.20;;;19.00;;
18651;SDS011;9455;54.302;10.124;2022-09-09T05:31:44;47.60;;;18.20;;
18651;SDS011;9455;54.302;10.124;2022-09-09T05:34:10;48.80;;;19.03;;
18651;SDS011;9455;54.302;10.124;2022-09-09T05:36:38;56.17;;;19.40;;
18651;SDS011;9455;54.302;10.124;2022-09-09T05:39:05;49.00;;;19.07;;
18651;SDS011;9455;54.302;10.124;2022-09-09T05:41:31;51.67;;;18.77;;
18651;SDS011;9455;54.302;10.124;2022-09-09T05:43:58;57.40;;;18.50;;
18651;SDS011;9455;54.302;10.124;2022-09-09T05:46:26;41.60;;;17.17;;
18651;SDS011;9455;54.302;10.124;2022-09-09T05:48:52;42.70;;;16.97;;
18651;SDS011;9455;54.302;10.124;2022-09-09T05:51:20;46.73;;;17.37;;
18651;SDS011;9455;54.302;10.124;2022-09-09T05:53:50;49.53;;;17.50;;
18651;SDS011;9455;54.302;10.124;2022-09-09T05:56:18;48.70;;;18.27;;
18651;SDS011;9455;54.302;10.124;2022-09-09T05:58:46;44.27;;;16.43;;
18651;SDS011;9455;54.302;10.124;2022-09-09T06:01:15;45.63;;;17.07;;
18651;SDS011;9455;54.302;10.124;2022-09-09T06:03:43;45.87;;;17.70;;
18651;SDS011;9455;54.302;10.124;2022-09-09T06:06:11;55.23;;;17.07;;
18651;SDS011;9455;54.302;10.124;2022-09-09T06:08:39;55.13;;;18.70;;
18651;SDS011;9455;54.302;10.124;2022-09-09T06:11:11;57.43;;;18.53;;
18651;SDS011;9455;54.302;10.124;2022-09-09T06:13:39;64.63;;;20.87;;
18651;SDS011;9455;54.302;10.124;2022-09-09T06:16:06;59.83;;;19.60;;
18651;SDS011;9455;54.302;10.124;2022-09-09T06:18:36;54.33;;;18.87;;
18651;SDS011;9455;54.302;10.124;2022-09-09T06:21:04;55.13;;;20.50;;
18651;SDS011;9455;54.302;10.124;2022-09-09T06:23:32;53.43;;;18.53;;
18651;SDS011;9455;54.302;10.124;2022-09-09T06:26:00;57.77;;;19.20;;
18651;SDS011;9455;54.302;10.124;2022-09-09T06:28:30;49.73;;;18.10;;
18651;SDS011;9455;54.302;10.124;2022-09-09T06:30:57;57.50;;;18.60;;
18651;SDS011;9455;54.302;10.124;2022-09-09T06:33:24;62.87;;;18.30;;
18651;SDS011;9455;54.302;10.124;2022-09-09T06:35:51;68.67;;;21.47;;
18651;SDS011;9455;54.302;10.124;2022-09-09T06:38:18;57.83;;;19.80;;
18651;SDS011;9455;54.302;10.124;2022-09-09T06:40:50;57.53;;;17.97;;
18651;SDS011;9455;54.302;10.124;2022-09-09T06:43:17;61.33;;;19.37;;
18651;SDS011;9455;54.302;10.124;2022-09-09T06:45:53;64.57;;;19.47;;
18651;SDS011;9455;54.302;10.124;2022-09-09T06:48:20;53.77;;;18.47;;
18651;SDS011;9455;54.302;10.124;2022-09-09T06:50:47;55.33;;;18.73;;
18651;SDS011;9455;54.302;10.124;2022-09-09T06:53:15;63.67;;;17.77;;
18651;SDS011;9455;54.302;10.124;2022-09-09T06:55:44;54.80;;;17.93;;
18651;SDS011;9455;54.302;10.124;2022-09-09T06:58:10;57.00;;;18.93;;
18651;SDS011;9455;54.302;10.124;2022-09-09T07:00:37;59.47;;;17.67;;
18651;SDS011;9455;54.302;10.124;2022-09-09T07:03:05;58.80;;;19.10;;
18651;SDS011;9455;54.302;10.124;2022-09-09T07:05:31;60.53;;;19.73;;
18651;SDS011;9455;54.302;10.124;2022-09-09T07:07:58;61.93;;;19.23;;
18651;SDS011;9455;54.302;10.124;2022-09-09T07:10:25;54.90;;;17.40;;
18651;SDS011;9455;54.302;10.124;2022-09-09T07:12:51;65.63;;;19.07;;
18651;SDS011;9455;54.302;10.124;2022-09-09T07:15:18;53.77;;;17.80;;
18651;SDS011;9455;54.302;10.124;2022-09-09T07:17:47;57.87;;;18.77;;
18651;SDS011;9455;54.302;10.124;2022-09-09T07:20:16;50.23;;;18.33;;
18651;SDS011;9455;54.302;10.124;2022-09-09T07:22:42;49.10;;;17.60;;
18651;SDS011;9455;54.302;10.124;2022-09-09T07:25:09;46.63;;;17.80;;
18651;SDS011;9455;54.302;10.124;2022-09-09T07:27:36;51.43;;;18.70;;
18651;SDS011;9455;54.302;10.124;2022-09-09T07:30:02;44.03;;;16.27;;
18651;SDS011;9455;54.302;10.124;2022-09-09T07:32:30;48.10;;;17.03;;
18651;SDS011;9455;54.302;10.124;2022-09-09T07:34:56;52.03;;;18.33;;
18651;SDS011;9455;54.302;10.124;2022-09-09T07:37:24;58.17;;;17.97;;
18651;SDS011;9455;54.302;10.124;2022-09-09T07:39:51;48.00;;;17.93;;
18651;SDS011;9455;54.302;10.124;2022-09-09T07:42:18;45.27;;;17.33;;
18651;SDS011;9455;54.302;10.124;2022-09-09T07:44:44;45.83;;;16.90;;
18651;SDS011;9455;54.302;10.124;2022-09-09T07:47:11;46.70;;;17.13;;
18651;SDS011;9455;54.302;10.124;2022-09-09T07:49:37;50.60;;;17.93;;
18651;SDS011;9455;54.302;10.124;2022-09-09T07:52:04;48.07;;;16.90;;
18651;SDS011;9455;54.302;10.124;2022-09-09T07:54:32;55.23;;;18.20;;
18651;SDS011;9455;54.302;10.124;2022-09-09T07:56:59;43.80;;;18.37;;
18651;SDS011;9455;54.302;10.124;2022-09-09T07:59:25;43.23;;;17.37;;
18651;SDS011;9455;54.302;10.124;2022-09-09T08:01:54;47.80;;;17.40;;
18651;SDS011;9455;54.302;10.124;2022-09-09T08:04:22;39.63;;;16.83;;
18651;SDS011;9455;54.302;10.124;2022-09-09T08:06:50;49.37;;;17.70;;
18651;SDS011;9455;54.302;10.124;2022-09-09T08:09:19;39.27;;;15.87;;
18651;SDS011;9455;54.302;10.124;2022-09-09T08:11:47;39.10;;;15.57;;
18651;SDS011;9455;54.302;10.124;2022-09-09T08:14:14;36.40;;;14.47;;
18651;SDS011;9455;54.302;10.124;2022-09-09T08:16:41;35.97;;;14.27;;
18651;SDS011;9455;54.302;10.124;2022-09-09T08:19:09;40.33;;;16.30;;
18651;SDS011;9455;54.302;10.124;2022-09-09T08:21:37;42.23;;;14.73;;
18651;SDS011;9455;54.302;10.124;2022-09-09T08:24:05;36.67;;;15.10;;
18651;SDS011;9455;54.302;10.124;2022-09-09T08:26:33;36.93;;;15.00;;
18651;SDS011;9455;54.302;10.124;2022-09-09T08:29:02;35.67;;;15.23;;
18651;SDS011;9455;54.302;10.124;2022-09-09T08:31:32;29.80;;;13.67;;
18651;SDS011;9455;54.302;10.124;2022-09-09T08:34:00;29.77;;;13.23;;
18651;SDS011;9455;54.302;10.124;2022-09-09T08:36:29;34.23;;;14.03;;
18651;SDS011;9455;54.302;10.124;2022-09-09T08:38:58;34.67;;;14.40;;
18651;SDS011;9455;54.302;10.124;2022-09-09T08:41:48;35.10;;;13.80;;
18651;SDS011;9455;54.302;10.124;2022-09-09T08:44:31;30.47;;;13.77;;
18651;SDS011;9455;54.302;10.124;2022-09-09T08:47:07;31.97;;;14.10;;
18651;SDS011;9455;54.302;10.124;2022-09-09T08:49:47;35.77;;;13.70;;
18651;SDS011;9455;54.302;10.124;2022-09-09T08:52:25;32.70;;;13.80;;
18651;SDS011;9455;54.302;10.124;2022-09-09T08:54:55;27.87;;;13.73;;
18651;SDS011;9455;54.302;10.124;2022-09-09T08:57:37;33.23;;;15.17;;
18651;SDS011;9455;54.302;10.124;2022-09-09T09:00:07;27.77;;;13.83;;
18651;SDS011;9455;54.302;10.124;2022-09-09T09:02:37;28.77;;;14.60;;
18651;SDS011;9455;54.302;10.124;2022-09-09T09:05:16;28.70;;;14.23;;
18651;SDS011;9455;54.302;10.124;2022-09-09T09:07:52;23.47;;;13.10;;
18651;SDS011;9455;54.302;10.124;2022-09-09T09:10:29;25.03;;;13.17;;
18651;SDS011;9455;54.302;10.124;2022-09-09T09:13:13;26.43;;;14.80;;
18651;SDS011;9455;54.302;10.124;2022-09-09T09:15:45;26.67;;;14.57;;
18651;SDS011;9455;54.302;10.124;2022-09-09T09:18:15;30.07;;;14.47;;
18651;SDS011;9455;54.302;10.124;2022-09-09T09:20:46;27.30;;;14.67;;
18651;SDS011;9455;54.302;10.124;2022-09-09T09:23:19;27.90;;;14.70;;
18651;SDS011;9455;54.302;10.124;2022-09-09T09:25:48;26.57;;;14.40;;
18651;SDS011;9455;54.302;10.124;2022-09-09T09:28:16;30.73;;;13.60;;
18651;SDS011;9455;54.302;10.124;2022-09-09T09:30:48;25.53;;;14.37;;
18651;SDS011;9455;54.302;10.124;2022-09-09T09:33:18;26.87;;;14.13;;
18651;SDS011;9455;54.302;10.124;2022-09-09T09:35:49;27.33;;;14.30;;
18651;SDS011;9455;54.302;10.124;2022-09-09T09:38:17;25.00;;;13.93;;
18651;SDS011;9455;54.302;10.124;2022-09-09T09:40:48;23.27;;;14.27;;
18651;SDS011;9455;54.302;10.124;2022-09-09T09:43:18;26.77;;;14.43;;
18651;SDS011;9455;54.302;10.124;2022-09-09T09:45:49;25.67;;;13.63;;
18651;SDS011;9455;54.302;10.124;2022-09-09T09:48:15;26.70;;;14.37;;
18651;SDS011;9455;54.302;10.124;2022-09-09T09:50:46;21.30;;;13.17;;
18651;SDS011;9455;54.302;10.124;2022-09-09T09:53:18;20.93;;;11.93;;
18651;SDS011;9455;54.302;10.124;2022-09-09T09:55:50;21.70;;;13.03;;
18651;SDS011;9455;54.302;10.124;2022-09-09T09:58:20;18.77;;;10.73;;
18651;SDS011;9455;54.302;10.124;2022-09-09T10:00:49;23.03;;;11.57;;
18651;SDS011;9455;54.302;10.124;2022-09-09T10:03:25;17.23;;;10.83;;
18651;SDS011;9455;54.302;10.124;2022-09-09T10:05:54;17.97;;;9.07;;
18651;SDS011;9455;54.302;10.124;2022-09-09T10:08:22;18.17;;;10.70;;
18651;SDS011;9455;54.302;10.124;2022-09-09T10:10:56;16.20;;;10.03;;
18651;SDS011;9455;54.302;10.124;2022-09-09T10:13:33;11.37;;;8.93;;
18651;SDS011;9455;54.302;10.124;2022-09-09T10:16:16;13.83;;;9.60;;
18651;SDS011;9455;54.302;10.124;2022-09-09T10:18:56;19.40;;;9.70;;
18651;SDS011;9455;54.302;10.124;2022-09-09T10:21:32;14.77;;;10.07;;
18651;SDS011;9455;54.302;10.124;2022-09-09T10:24:25;14.97;;;9.23;;
18651;SDS011;9455;54.302;10.124;2022-09-09T10:27:05;17.00;;;10.00;;
18651;SDS011;9455;54.302;10.124;2022-09-09T10:29:48;21.07;;;11.27;;
18651;SDS011;9455;54.302;10.124;2022-09-09T10:32:41;10.07;;;6.83;;
18651;SDS011;9455;54.302;10.124;2022-09-09T10:35:24;17.67;;;7.77;;
18651;SDS011;9455;54.302;10.124;2022-09-09T10:38:05;7.33;;;5.63;;
18651;SDS011;9455;54.302;10.124;2022-09-09T10:40:42;15.63;;;6.57;;
18651;SDS011;9455;54.302;10.124;2022-09-09T10:43:14;11.10;;;7.17;;
18651;SDS011;9455;54.302;10.124;2022-09-09T10:45:51;139.23;;;39.07;;
18651;SDS011;9455;54.302;10.124;2022-09-09T10:48:33;18.17;;;7.60;;
18651;SDS011;9455;54.302;10.124;2022-09-09T10:51:14;3.67;;;3.47;;
18651;SDS011;9455;54.302;10.124;2022-09-09T10:53:57;4.47;;;3.67;;
18651;SDS011;9455;54.302;10.124;2022-09-09T10:56:36;5.33;;;3.00;;
18651;SDS011;9455;54.302;10.124;2022-09-09T10:59:06;4.10;;;2.83;;
18651;SDS011;9455;54.302;10.124;2022-09-09T11:01:39;5.07;;;3.17;;
18651;SDS011;9455;54.302;10.124;2022-09-09T11:04:12;2.67;;;2.43;;
18651;SDS011;9455;54.302;10.124;2022-09-09T11:06:44;4.30;;;2.20;;
18651;SDS011;9455;54.302;10.124;2022-09-09T11:09:15;3.07;;;2.63;;
18651;SDS011;9455;54.302;10.124;2022-09-09T11:11:45;2.90;;;2.70;;
18651;SDS011;9455;54.302;10.124;2022-09-09T11:14:19;2.70;;;2.57;;
18651;SDS011;9455;54.302;10.124;2022-09-09T11:16:53;2.93;;;2.70;;
18651;SDS011;9455;54.302;10.124;2022-09-09T11:19:27;4.00;;;2.83;;
18651;SDS011;9455;54.302;10.124;2022-09-09T11:21:59;3.40;;;2.40;;
18651;SDS011;9455;54.302;10.124;2022-09-09T11:24:30;4.50;;;2.27;;
18651;SDS011;9455;54.302;10.124;2022-09-09T11:27:01;8.30;;;1.60;;
18651;SDS011;9455;54.302;10.124;2022-09-09T11:32:59;1.60;;;1.47;;
18651;SDS011;9455;54.302;10.124;2022-09-09T11:35:51;1.50;;;1.00;;
18651;SDS011;9455;54.302;10.124;2022-09-09T11:38:29;4.53;;;1.13;;
18651;SDS011;9455;54.302;10.124;2022-09-09T11:41:05;1.33;;;1.20;;
18651;SDS011;9455;54.302;10.124;2022-09-09T11:43:38;5.07;;;1.27;;
18651;SDS011;9455;54.302;10.124;2022-09-09T11:46:07;1.93;;;1.30;;
18651;SDS011;9455;54.302;10.124;2022-09-09T11:48:35;2.37;;;1.30;;
18651;SDS011;9455;54.302;10.124;2022-09-09T11:51:05;1.17;;;1.13;;
18651;SDS011;9455;54.302;10.124;2022-09-09T11:53:34;4.93;;;1.57;;
18651;SDS011;9455;54.302;10.124;2022-09-09T11:58:56;2.70;;;1.70;;
18651;SDS011;9455;54.302;10.124;2022-09-09T12:01:29;2.77;;;1.23;;
18651;SDS011;9455;54.302;10.124;2022-09-09T12:04:05;2.53;;;1.27;;
18651;SDS011;9455;54.302;10.124;2022-09-09T12:06:43;2.47;;;1.00;;
18651;SDS011;9455;54.302;10.124;2022-09-09T12:09:17;1.40;;;1.00;;
18651;SDS011;9455;54.302;10.124;2022-09-09T12:11:48;1.37;;;0.90;;
18651;SDS011;9455;54.302;10.124;2022-09-09T12:14:21;1.93;;;1.07;;
18651;SDS011;9455;54.302;10.124;2022-09-09T12:17:08;2.63;;;1.10;;
18651;SDS011;9455;54.302;10.124;2022-09-09T12:19:36;0.87;;;0.67;;
18651;SDS011;9455;54.302;10.124;2022-09-09T12:22:05;2.00;;;1.27;;
18651;SDS011;9455;54.302;10.124;2022-09-09T12:24:43;2.10;;;1.33;;
18651;SDS011;9455;54.302;10.124;2022-09-09T12:27:16;1.40;;;1.33;;
18651;SDS011;9455;54.302;10.124;2022-09-09T12:29:52;1.60;;;0.90;;
18651;SDS011;9455;54.302;10.124;2022-09-09T12:32:24;3.33;;;0.87;;
18651;SDS011;9455;54.302;10.124;2022-09-09T12:34:54;2.10;;;1.03;;
18651;SDS011;9455;54.302;10.124;2022-09-09T12:37:29;1.10;;;0.77;;
18651;SDS011;9455;54.302;10.124;2022-09-09T12:40:00;0.60;;;0.60;;
18651;SDS011;9455;54.302;10.124;2022-09-09T12:42:29;0.57;;;0.57;;
18651;SDS011;9455;54.302;10.124;2022-09-09T12:44:58;1.17;;;0.90;;
18651;SDS011;9455;54.302;10.124;2022-09-09T12:47:28;2.23;;;0.90;;
18651;SDS011;9455;54.302;10.124;2022-09-09T12:50:03;3.87;;;1.10;;
18651;SDS011;9455;54.302;10.124;2022-09-09T12:52:32;0.63;;;0.60;;
18651;SDS011;9455;54.302;10.124;2022-09-09T12:55:03;1.03;;;0.50;;
18651;SDS011;9455;54.302;10.124;2022-09-09T12:57:34;1.10;;;0.77;;
18651;SDS011;9455;54.302;10.124;2022-09-09T13:00:04;1.40;;;0.90;;
18651;SDS011;9455;54.302;10.124;2022-09-09T13:02:33;0.50;;;0.50;;
18651;SDS011;9455;54.302;10.124;2022-09-09T13:05:05;1.73;;;0.90;;
18651;SDS011;9455;54.302;10.124;2022-09-09T13:07:40;0.60;;;0.60;;
18651;SDS011;9455;54.302;10.124;2022-09-09T13:10:10;0.83;;;0.70;;
18651;SDS011;9455;54.302;10.124;2022-09-09T13:12:37;2.70;;;1.63;;
18651;SDS011;9455;54.302;10.124;2022-09-09T13:15:05;1.50;;;0.80;;
18651;SDS011;9455;54.302;10.124;2022-09-09T13:17:40;1.13;;;0.83;;
18651;SDS011;9455;54.302;10.124;2022-09-09T13:20:14;1.83;;;0.90;;
18651;SDS011;9455;54.302;10.124;2022-09-09T13:22:44;2.17;;;0.67;;
18651;SDS011;9455;54.302;10.124;2022-09-09T13:25:17;4.37;;;0.90;;
18651;SDS011;9455;54.302;10.124;2022-09-09T13:27:51;2.00;;;0.80;;
18651;SDS011;9455;54.302;10.124;2022-09-09T13:30:20;0.80;;;0.80;;
18651;SDS011;9455;54.302;10.124;2022-09-09T13:32:59;2.90;;;1.20;;
18651;SDS011;9455;54.302;10.124;2022-09-09T13:35:30;2.60;;;1.20;;
18651;SDS011;9455;54.302;10.124;2022-09-09T13:37:59;2.57;;;0.70;;
18651;SDS011;9455;54.302;10.124;2022-09-09T13:40:33;0.80;;;0.80;;
18651;SDS011;9455;54.302;10.124;2022-09-09T13:43:01;1.10;;;1.00;;
18651;SDS011;9455;54.302;10.124;2022-09-09T13:45:28;2.33;;;1.00;;
18651;SDS011;9455;54.302;10.124;2022-09-09T13:47:55;2.40;;;1.30;;
18651;SDS011;9455;54.302;10.124;2022-09-09T13:50:22;1.27;;;1.13;;
18651;SDS011;9455;54.302;10.124;2022-09-09T13:52:51;2.90;;;1.33;;
18651;SDS011;9455;54.302;10.124;2022-09-09T13:55:21;2.17;;;1.47;;
18651;SDS011;9455;54.302;10.124;2022-09-09T13:57:50;6.60;;;1.60;;
18651;SDS011;9455;54.302;10.124;2022-09-09T14:00:17;1.53;;;1.30;;
18651;SDS011;9455;54.302;10.124;2022-09-09T14:02:44;2.83;;;1.17;;
18651;SDS011;9455;54.302;10.124;2022-09-09T14:05:11;3.43;;;1.10;;
18651;SDS011;9455;54.302;10.124;2022-09-09T14:07:38;1.67;;;1.07;;
18651;SDS011;9455;54.302;10.124;2022-09-09T14:10:07;0.87;;;0.87;;
18651;SDS011;9455;54.302;10.124;2022-09-09T14:12:35;1.27;;;0.80;;
18651;SDS011;9455;54.302;10.124;2022-09-09T14:15:02;3.77;;;1.00;;
18651;SDS011;9455;54.302;10.124;2022-09-09T14:17:29;1.60;;;1.03;;
18651;SDS011;9455;54.302;10.124;2022-09-09T14:19:57;3.30;;;1.13;;
18651;SDS011;9455;54.302;10.124;2022-09-09T14:22:24;2.70;;;1.50;;
18651;SDS011;9455;54.302;10.124;2022-09-09T14:24:51;0.70;;;0.70;;
18651;SDS011;9455;54.302;10.124;2022-09-09T14:27:18;1.07;;;1.00;;
18651;SDS011;9455;54.302;10.124;2022-09-09T14:29:46;2.90;;;0.90;;
18651;SDS011;9455;54.302;10.124;2022-09-09T14:32:12;1.40;;;1.23;;
18651;SDS011;9455;54.302;10.124;2022-09-09T14:34:39;1.23;;;0.80;;
18651;SDS011;9455;54.302;10.124;2022-09-09T14:37:05;0.97;;;0.77;;
18651;SDS011;9455;54.302;10.124;2022-09-09T14:39:32;1.10;;;0.80;;
18651;SDS011;9455;54.302;10.124;2022-09-09T14:41:58;3.23;;;0.77;;
18651;SDS011;9455;54.302;10.124;2022-09-09T14:44:25;6.43;;;1.10;;
18651;SDS011;9455;54.302;10.124;2022-09-09T14:46:53;0.97;;;0.80;;
18651;SDS011;9455;54.302;10.124;2022-09-09T14:49:20;0.60;;;0.60;;
18651;SDS011;9455;54.302;10.124;2022-09-09T14:51:46;1.50;;;0.90;;
18651;SDS011;9455;54.302;10.124;2022-09-09T14:54:13;1.10;;;0.90;;
18651;SDS011;9455;54.302;10.124;2022-09-09T14:56:39;4.10;;;1.30;;